sensor_id;sensor_type;location;lat;lon;timestamp;temperature;humidity
11925;DHT22;6022;48.768;18.608;2023-07-20T00:02:05;21.90;99.90
11925;DHT22;6022;48.768;18.608;2023-07-20T00:04:35;21.60;99.90
11925;DHT22;6022;48.768;18.608;2023-07-20T00:07:06;21.90;99.90
11925;DHT22;6022;48.768;18.608;2023-07-20T00:09:39;21.60;99.90
11925;DHT22;6022;48.768;18.608;2023-07-20T00:12:09;21.90;99.90
11925;DHT22;6022;48.768;18.608;2023-07-20T00:14:36;21.70;99.90
11925;DHT22;6022;48.768;18.608;2023-07-20T00:17:06;21.80;99.90
11925;DHT22;6022;48.768;18.608;2023-07-20T00:19:40;21.50;99.90
11925;DHT22;6022;48.768;18.608;2023-07-20T00:22:07;21.80;99.90
11925;DHT22;6022;48.768;18.608;2023-07-20T00:24:36;21.70;99.90
11925;DHT22;6022;48.768;18.608;2023-07-20T00:27:04;21.50;99.90
11925;DHT22;6022;48.768;18.608;2023-07-20T00:29:34;21.40;99.90
11925;DHT22;6022;48.768;18.608;2023-07-20T00:32:02;21.70;99.90
11925;DHT22;6022;48.768;18.608;2023-07-20T00:34:32;21.70;99.90
11925;DHT22;6022;48.768;18.608;2023-07-20T00:37:00;21.40;99.90
11925;DHT22;6022;48.768;18.608;2023-07-20T00:39:27;21.40;99.90
11925;DHT22;6022;48.768;18.608;2023-07-20T00:41:54;21.40;99.90
11925;DHT22;6022;48.768;18.608;2023-07-20T00:44:21;21.00;99.90
11925;DHT22;6022;48.768;18.608;2023-07-20T00:46:49;20.90;99.90
11925;DHT22;6022;48.768;18.608;2023-07-20T00:49:16;20.90;99.90
11925;DHT22;6022;48.768;18.608;2023-07-20T00:51:48;21.00;99.90
11925;DHT22;6022;48.768;18.608;2023-07-20T00:54:16;20.80;99.90
11925;DHT22;6022;48.768;18.608;2023-07-20T00:56:44;20.90;99.90
11925;DHT22;6022;48.768;18.608;2023-07-20T00:59:12;20.80;99.90
11925;DHT22;6022;48.768;18.608;2023-07-20T01:01:40;20.80;99.90
11925;DHT22;6022;48.768;18.608;2023-07-20T01:04:07;20.90;99.90
11925;DHT22;6022;48.768;18.608;2023-07-20T01:09:28;20.50;99.90
11925;DHT22;6022;48.768;18.608;2023-07-20T01:14:53;20.50;99.90
11925;DHT22;6022;48.768;18.608;2023-07-20T01:17:21;20.20;99.90
11925;DHT22;6022;48.768;18.608;2023-07-20T01:19:48;20.30;99.90
11925;DHT22;6022;48.768;18.608;2023-07-20T01:22:21;20.40;99.90
11925;DHT22;6022;48.768;18.608;2023-07-20T01:32:54;20.00;99.90
11925;DHT22;6022;48.768;18.608;2023-07-20T01:35:28;20.00;99.90
11925;DHT22;6022;48.768;18.608;2023-07-20T01:37:58;19.90;99.90
11925;DHT22;6022;48.768;18.608;2023-07-20T01:40:27;19.60;99.90
11925;DHT22;6022;48.768;18.608;2023-07-20T01:42:54;19.50;99.90
11925;DHT22;6022;48.768;18.608;2023-07-20T01:45:21;19.50;99.90
11925;DHT22;6022;48.768;18.608;2023-07-20T01:47:49;19.70;99.90
11925;DHT22;6022;48.768;18.608;2023-07-20T01:50:16;19.60;99.90
11925;DHT22;6022;48.768;18.608;2023-07-20T01:52:43;19.70;99.90
11925;DHT22;6022;48.768;18.608;2023-07-20T01:55:10;20.10;99.90
11925;DHT22;6022;48.768;18.608;2023-07-20T01:57:37;19.80;99.90
11925;DHT22;6022;48.768;18.608;2023-07-20T02:00:05;20.10;99.90
11925;DHT22;6022;48.768;18.608;2023-07-20T02:02:36;19.60;99.90
11925;DHT22;6022;48.768;18.608;2023-07-20T02:05:04;19.80;99.90
11925;DHT22;6022;48.768;18.608;2023-07-20T02:07:31;19.70;99.90
11925;DHT22;6022;48.768;18.608;2023-07-20T02:09:58;19.60;99.90
11925;DHT22;6022;48.768;18.608;2023-07-20T02:12:26;19.60;99.90
11925;DHT22;6022;48.768;18.608;2023-07-20T02:14:53;19.60;99.90
11925;DHT22;6022;48.768;18.608;2023-07-20T02:17:20;19.20;99.90
11925;DHT22;6022;48.768;18.608;2023-07-20T02:19:52;19.50;99.90
11925;DHT22;6022;48.768;18.608;2023-07-20T02:22:19;19.50;99.90
11925;DHT22;6022;48.768;18.608;2023-07-20T02:24:46;19.50;99.90
11925;DHT22;6022;48.768;18.608;2023-07-20T02:27:13;19.70;99.90
11925;DHT22;6022;48.768;18.608;2023-07-20T02:29:41;19.60;99.90
11925;DHT22;6022;48.768;18.608;2023-07-20T02:32:09;19.60;99.90
11925;DHT22;6022;48.768;18.608;2023-07-20T02:34:36;19.40;99.90
11925;DHT22;6022;48.768;18.608;2023-07-20T02:37:04;19.30;99.90
11925;DHT22;6022;48.768;18.608;2023-07-20T02:39:31;19.50;99.90
11925;DHT22;6022;48.768;18.608;2023-07-20T02:41:59;19.30;99.90
11925;DHT22;6022;48.768;18.608;2023-07-20T02:44:29;19.40;99.90
11925;DHT22;6022;48.768;18.608;2023-07-20T02:46:57;19.40;99.90
11925;DHT22;6022;48.768;18.608;2023-07-20T02:49:24;19.60;99.90
11925;DHT22;6022;48.768;18.608;2023-07-20T02:51:51;19.50;99.90
11925;DHT22;6022;48.768;18.608;2023-07-20T02:54:18;19.20;99.90
11925;DHT22;6022;48.768;18.608;2023-07-20T02:56:45;18.90;99.90
11925;DHT22;6022;48.768;18.608;2023-07-20T02:59:13;19.40;99.90
11925;DHT22;6022;48.768;18.608;2023-07-20T03:01:40;19.20;99.90
11925;DHT22;6022;48.768;18.608;2023-07-20T03:04:09;19.30;99.90
11925;DHT22;6022;48.768;18.608;2023-07-20T03:06:39;19.30;99.90
11925;DHT22;6022;48.768;18.608;2023-07-20T03:09:06;19.10;99.90
11925;DHT22;6022;48.768;18.608;2023-07-20T03:11:33;19.20;99.90
11925;DHT22;6022;48.768;18.608;2023-07-20T03:14:02;18.80;99.90
11925;DHT22;6022;48.768;18.608;2023-07-20T03:16:29;18.80;99.90
11925;DHT22;6022;48.768;18.608;2023-07-20T03:19:00;18.60;99.90
11925;DHT22;6022;48.768;18.608;2023-07-20T03:21:27;18.40;99.90
11925;DHT22;6022;48.768;18.608;2023-07-20T03:23:54;18.20;99.90
11925;DHT22;6022;48.768;18.608;2023-07-20T03:26:22;18.70;99.90
11925;DHT22;6022;48.768;18.608;2023-07-20T03:28:50;18.60;99.90
11925;DHT22;6022;48.768;18.608;2023-07-20T03:31:17;18.60;99.90
11925;DHT22;6022;48.768;18.608;2023-07-20T03:33:44;18.80;99.90
11925;DHT22;6022;48.768;18.608;2023-07-20T03:36:11;18.90;99.90
11925;DHT22;6022;48.768;18.608;2023-07-20T03:38:39;19.10;99.90
11925;DHT22;6022;48.768;18.608;2023-07-20T03:41:06;19.00;99.90
11925;DHT22;6022;48.768;18.608;2023-07-20T03:43:34;19.10;99.90
11925;DHT22;6022;48.768;18.608;2023-07-20T03:46:01;19.10;99.90
11925;DHT22;6022;48.768;18.608;2023-07-20T03:48:33;19.30;99.90
11925;DHT22;6022;48.768;18.608;2023-07-20T03:51:01;19.40;99.90
11925;DHT22;6022;48.768;18.608;2023-07-20T03:53:31;19.30;99.90
11925;DHT22;6022;48.768;18.608;2023-07-20T03:55:58;19.40;99.90
11925;DHT22;6022;48.768;18.608;2023-07-20T03:58:29;19.40;99.90
11925;DHT22;6022;48.768;18.608;2023-07-20T04:00:59;19.60;99.90
11925;DHT22;6022;48.768;18.608;2023-07-20T04:03:26;19.10;99.90
11925;DHT22;6022;48.768;18.608;2023-07-20T04:05:54;19.40;99.90
11925;DHT22;6022;48.768;18.608;2023-07-20T04:08:27;19.30;99.90
11925;DHT22;6022;48.768;18.608;2023-07-20T04:10:55;19.20;99.90
11925;DHT22;6022;48.768;18.608;2023-07-20T04:13:22;19.10;99.90
11925;DHT22;6022;48.768;18.608;2023-07-20T04:15:49;19.20;99.90
11925;DHT22;6022;48.768;18.608;2023-07-20T04:18:16;19.30;99.90
11925;DHT22;6022;48.768;18.608;2023-07-20T04:20:44;19.30;99.90
11925;DHT22;6022;48.768;18.608;2023-07-20T04:23:11;19.40;99.90
11925;DHT22;6022;48.768;18.608;2023-07-20T04:25:40;19.30;99.90
11925;DHT22;6022;48.768;18.608;2023-07-20T04:28:07;19.40;99.90
11925;DHT22;6022;48.768;18.608;2023-07-20T04:30:39;19.30;99.90
11925;DHT22;6022;48.768;18.608;2023-07-20T04:33:07;19.20;99.90
11925;DHT22;6022;48.768;18.608;2023-07-20T04:35:53;19.40;99.90
11925;DHT22;6022;48.768;18.608;2023-07-20T04:38:24;19.60;99.90
11925;DHT22;6022;48.768;18.608;2023-07-20T04:40:51;19.80;99.90
11925;DHT22;6022;48.768;18.608;2023-07-20T04:43:20;20.20;99.90
11925;DHT22;6022;48.768;18.608;2023-07-20T04:46:05;20.00;99.90
11925;DHT22;6022;48.768;18.608;2023-07-20T04:48:54;20.10;99.90
11925;DHT22;6022;48.768;18.608;2023-07-20T04:51:27;20.50;99.90
11925;DHT22;6022;48.768;18.608;2023-07-20T04:54:09;20.50;99.90
11925;DHT22;6022;48.768;18.608;2023-07-20T04:56:45;20.50;99.90
11925;DHT22;6022;48.768;18.608;2023-07-20T04:59:17;20.50;99.90
11925;DHT22;6022;48.768;18.608;2023-07-20T05:01:55;20.60;99.90
11925;DHT22;6022;48.768;18.608;2023-07-20T05:04:24;20.60;99.90
11925;DHT22;6022;48.768;18.608;2023-07-20T05:06:55;20.70;99.90
11925;DHT22;6022;48.768;18.608;2023-07-20T05:12:44;21.50;99.90
11925;DHT22;6022;48.768;18.608;2023-07-20T05:15:11;22.50;99.90
11925;DHT22;6022;48.768;18.608;2023-07-20T05:17:39;22.30;99.90
11925;DHT22;6022;48.768;18.608;2023-07-20T05:20:21;22.50;99.90
11925;DHT22;6022;48.768;18.608;2023-07-20T05:22:56;22.30;99.90
11925;DHT22;6022;48.768;18.608;2023-07-20T05:25:23;22.50;99.90
11925;DHT22;6022;48.768;18.608;2023-07-20T05:28:19;22.70;99.90
11925;DHT22;6022;48.768;18.608;2023-07-20T05:30:53;22.70;99.90
11925;DHT22;6022;48.768;18.608;2023-07-20T05:33:30;24.50;99.90
11925;DHT22;6022;48.768;18.608;2023-07-20T05:36:14;25.90;99.90
11925;DHT22;6022;48.768;18.608;2023-07-20T05:38:41;28.00;99.90
11925;DHT22;6022;48.768;18.608;2023-07-20T05:41:20;28.10;99.90
11925;DHT22;6022;48.768;18.608;2023-07-20T05:44:00;29.10;99.90
11925;DHT22;6022;48.768;18.608;2023-07-20T05:46:36;30.70;99.90
11925;DHT22;6022;48.768;18.608;2023-07-20T05:49:23;30.80;98.20
11925;DHT22;6022;48.768;18.608;2023-07-20T05:51:57;30.60;98.50
11925;DHT22;6022;48.768;18.608;2023-07-20T05:54:24;30.60;98.00
11925;DHT22;6022;48.768;18.608;2023-07-20T05:56:56;30.90;96.80
11925;DHT22;6022;48.768;18.608;2023-07-20T05:59:31;31.40;95.80
11925;DHT22;6022;48.768;18.608;2023-07-20T06:02:04;31.80;93.50
11925;DHT22;6022;48.768;18.608;2023-07-20T06:04:45;31.90;92.60
11925;DHT22;6022;48.768;18.608;2023-07-20T06:07:16;32.20;92.20
11925;DHT22;6022;48.768;18.608;2023-07-20T06:09:49;32.60;90.90
11925;DHT22;6022;48.768;18.608;2023-07-20T06:12:16;32.70;88.90
11925;DHT22;6022;48.768;18.608;2023-07-20T06:15:03;32.90;86.60
11925;DHT22;6022;48.768;18.608;2023-07-20T06:17:39;33.20;87.00
11925;DHT22;6022;48.768;18.608;2023-07-20T06:20:15;32.90;84.80
11925;DHT22;6022;48.768;18.608;2023-07-20T06:23:10;33.00;85.80
11925;DHT22;6022;48.768;18.608;2023-07-20T06:25:43;33.50;83.50
11925;DHT22;6022;48.768;18.608;2023-07-20T06:28:21;33.70;80.30
11925;DHT22;6022;48.768;18.608;2023-07-20T06:30:52;33.70;79.50
11925;DHT22;6022;48.768;18.608;2023-07-20T06:33:27;33.80;77.60
11925;DHT22;6022;48.768;18.608;2023-07-20T06:36:07;33.80;77.50
11925;DHT22;6022;48.768;18.608;2023-07-20T06:38:41;34.20;74.80
11925;DHT22;6022;48.768;18.608;2023-07-20T06:41:52;34.30;74.00
11925;DHT22;6022;48.768;18.608;2023-07-20T06:44:29;34.60;72.50
11925;DHT22;6022;48.768;18.608;2023-07-20T06:47:01;34.60;71.30
11925;DHT22;6022;48.768;18.608;2023-07-20T06:49:28;34.90;70.10
11925;DHT22;6022;48.768;18.608;2023-07-20T06:52:56;34.80;68.80
11925;DHT22;6022;48.768;18.608;2023-07-20T06:55:31;34.60;68.50
11925;DHT22;6022;48.768;18.608;2023-07-20T06:58:26;34.90;67.90
11925;DHT22;6022;48.768;18.608;2023-07-20T07:01:14;35.30;66.70
11925;DHT22;6022;48.768;18.608;2023-07-20T07:03:55;35.40;66.40
11925;DHT22;6022;48.768;18.608;2023-07-20T07:06:29;35.70;67.60
11925;DHT22;6022;48.768;18.608;2023-07-20T07:09:20;35.90;65.60
11925;DHT22;6022;48.768;18.608;2023-07-20T07:14:54;35.80;62.90
11925;DHT22;6022;48.768;18.608;2023-07-20T07:21:08;36.20;60.10
11925;DHT22;6022;48.768;18.608;2023-07-20T07:23:38;36.70;56.70
11925;DHT22;6022;48.768;18.608;2023-07-20T07:26:08;36.60;57.50
11925;DHT22;6022;48.768;18.608;2023-07-20T07:28:36;36.00;59.90
11925;DHT22;6022;48.768;18.608;2023-07-20T07:31:10;36.10;60.40
11925;DHT22;6022;48.768;18.608;2023-07-20T07:33:55;36.00;59.40
11925;DHT22;6022;48.768;18.608;2023-07-20T07:36:43;35.60;58.90
11925;DHT22;6022;48.768;18.608;2023-07-20T07:39:28;35.70;60.10
11925;DHT22;6022;48.768;18.608;2023-07-20T07:42:18;36.30;57.80
11925;DHT22;6022;48.768;18.608;2023-07-20T07:45:22;36.70;53.70
11925;DHT22;6022;48.768;18.608;2023-07-20T07:47:56;37.10;52.10
11925;DHT22;6022;48.768;18.608;2023-07-20T07:51:16;37.30;51.50
11925;DHT22;6022;48.768;18.608;2023-07-20T07:54:00;37.20;50.90
11925;DHT22;6022;48.768;18.608;2023-07-20T07:57:32;37.60;50.80
11925;DHT22;6022;48.768;18.608;2023-07-20T08:00:38;37.80;48.70
11925;DHT22;6022;48.768;18.608;2023-07-20T08:03:32;38.10;47.80
11925;DHT22;6022;48.768;18.608;2023-07-20T08:06:33;38.00;46.40
11925;DHT22;6022;48.768;18.608;2023-07-20T08:09:05;38.00;46.70
11925;DHT22;6022;48.768;18.608;2023-07-20T08:11:44;37.90;47.00
11925;DHT22;6022;48.768;18.608;2023-07-20T08:15:13;37.60;45.50
11925;DHT22;6022;48.768;18.608;2023-07-20T08:18:05;37.50;45.00
11925;DHT22;6022;48.768;18.608;2023-07-20T08:20:35;37.50;46.00
11925;DHT22;6022;48.768;18.608;2023-07-20T08:23:19;37.20;46.20
11925;DHT22;6022;48.768;18.608;2023-07-20T08:26:10;37.30;46.50
11925;DHT22;6022;48.768;18.608;2023-07-20T08:29:23;37.20;44.90
11925;DHT22;6022;48.768;18.608;2023-07-20T08:32:13;37.10;44.10
11925;DHT22;6022;48.768;18.608;2023-07-20T08:35:03;37.20;43.10
11925;DHT22;6022;48.768;18.608;2023-07-20T08:37:32;37.10;43.50
11925;DHT22;6022;48.768;18.608;2023-07-20T08:40:34;37.30;41.90
11925;DHT22;6022;48.768;18.608;2023-07-20T08:43:40;37.20;42.40
11925;DHT22;6022;48.768;18.608;2023-07-20T08:46:20;37.30;41.90
11925;DHT22;6022;48.768;18.608;2023-07-20T08:48:59;37.10;42.70
11925;DHT22;6022;48.768;18.608;2023-07-20T08:51:31;37.20;43.40
11925;DHT22;6022;48.768;18.608;2023-07-20T08:54:17;37.60;42.00
11925;DHT22;6022;48.768;18.608;2023-07-20T08:56:53;37.50;43.00
11925;DHT22;6022;48.768;18.608;2023-07-20T08:59:28;37.50;40.70
11925;DHT22;6022;48.768;18.608;2023-07-20T09:02:02;37.30;41.50
11925;DHT22;6022;48.768;18.608;2023-07-20T09:04:35;37.00;42.20
11925;DHT22;6022;48.768;18.608;2023-07-20T09:07:13;37.30;42.40
11925;DHT22;6022;48.768;18.608;2023-07-20T09:09:59;37.10;42.70
11925;DHT22;6022;48.768;18.608;2023-07-20T09:12:40;37.70;42.30
11925;DHT22;6022;48.768;18.608;2023-07-20T10:26:55;32.30;45.50
11925;DHT22;6022;48.768;18.608;2023-07-20T10:48:03;31.80;43.70
11925;DHT22;6022;48.768;18.608;2023-07-20T10:50:34;31.80;45.80
11925;DHT22;6022;48.768;18.608;2023-07-20T10:53:13;31.90;46.60
11925;DHT22;6022;48.768;18.608;2023-07-20T10:55:43;32.10;45.60
11925;DHT22;6022;48.768;18.608;2023-07-20T10:58:12;31.80;44.50
11925;DHT22;6022;48.768;18.608;2023-07-20T11:01:01;31.60;43.00
11925;DHT22;6022;48.768;18.608;2023-07-20T11:03:33;32.10;44.70
11925;DHT22;6022;48.768;18.608;2023-07-20T11:09:07;33.50;43.00
11925;DHT22;6022;48.768;18.608;2023-07-20T11:11:46;33.20;40.30
11925;DHT22;6022;48.768;18.608;2023-07-20T11:16:53;33.20;41.60
11925;DHT22;6022;48.768;18.608;2023-07-20T11:19:26;33.50;42.60
11925;DHT22;6022;48.768;18.608;2023-07-20T11:22:06;33.00;40.00
11925;DHT22;6022;48.768;18.608;2023-07-20T11:24:40;32.90;40.70
11925;DHT22;6022;48.768;18.608;2023-07-20T11:27:17;32.90;41.20
11925;DHT22;6022;48.768;18.608;2023-07-20T11:30:18;32.50;39.20
11925;DHT22;6022;48.768;18.608;2023-07-20T11:32:59;32.20;39.60
11925;DHT22;6022;48.768;18.608;2023-07-20T11:35:44;31.50;41.30
11925;DHT22;6022;48.768;18.608;2023-07-20T11:38:20;31.20;40.70
11925;DHT22;6022;48.768;18.608;2023-07-20T11:41:00;30.80;39.70
11925;DHT22;6022;48.768;18.608;2023-07-20T11:44:16;30.70;40.40
11925;DHT22;6022;48.768;18.608;2023-07-20T11:51:47;31.90;43.10
11925;DHT22;6022;48.768;18.608;2023-07-20T11:54:51;31.90;43.20
11925;DHT22;6022;48.768;18.608;2023-07-20T11:58:28;32.40;41.70
11925;DHT22;6022;48.768;18.608;2023-07-20T12:01:40;33.30;43.00
11925;DHT22;6022;48.768;18.608;2023-07-20T12:04:48;34.00;41.60
11925;DHT22;6022;48.768;18.608;2023-07-20T12:07:44;34.10;40.00
11925;DHT22;6022;48.768;18.608;2023-07-20T12:10:32;34.10;40.50
11925;DHT22;6022;48.768;18.608;2023-07-20T12:13:54;33.40;39.30
11925;DHT22;6022;48.768;18.608;2023-07-20T12:17:36;33.40;41.00
11925;DHT22;6022;48.768;18.608;2023-07-20T12:27:12;32.70;41.00
11925;DHT22;6022;48.768;18.608;2023-07-20T12:29:55;32.80;40.00
11925;DHT22;6022;48.768;18.608;2023-07-20T12:32:41;32.70;40.50
11925;DHT22;6022;48.768;18.608;2023-07-20T12:35:22;32.80;42.50
11925;DHT22;6022;48.768;18.608;2023-07-20T12:37:59;32.50;41.00
11925;DHT22;6022;48.768;18.608;2023-07-20T12:40:36;32.70;41.50
11925;DHT22;6022;48.768;18.608;2023-07-20T12:43:11;33.10;43.10
11925;DHT22;6022;48.768;18.608;2023-07-20T12:45:47;32.60;38.90
11925;DHT22;6022;48.768;18.608;2023-07-20T12:48:30;32.50;39.20
11925;DHT22;6022;48.768;18.608;2023-07-20T12:51:16;31.90;40.90
11925;DHT22;6022;48.768;18.608;2023-07-20T12:59:42;31.50;41.70
11925;DHT22;6022;48.768;18.608;2023-07-20T13:02:40;31.30;42.30
11925;DHT22;6022;48.768;18.608;2023-07-20T13:05:11;31.30;43.00
11925;DHT22;6022;48.768;18.608;2023-07-20T13:07:40;31.50;43.50
11925;DHT22;6022;48.768;18.608;2023-07-20T13:10:11;31.40;42.40
11925;DHT22;6022;48.768;18.608;2023-07-20T13:12:39;31.30;43.40
11925;DHT22;6022;48.768;18.608;2023-07-20T13:15:14;31.30;43.80
11925;DHT22;6022;48.768;18.608;2023-07-20T13:17:48;31.20;42.80
11925;DHT22;6022;48.768;18.608;2023-07-20T13:20:25;31.20;43.10
11925;DHT22;6022;48.768;18.608;2023-07-20T13:22:54;30.90;42.60
11925;DHT22;6022;48.768;18.608;2023-07-20T13:25:26;30.80;42.80
11925;DHT22;6022;48.768;18.608;2023-07-20T13:28:10;30.30;42.80
11925;DHT22;6022;48.768;18.608;2023-07-20T13:30:37;30.20;43.40
11925;DHT22;6022;48.768;18.608;2023-07-20T13:33:09;30.40;44.70
11925;DHT22;6022;48.768;18.608;2023-07-20T13:35:46;30.50;43.50
11925;DHT22;6022;48.768;18.608;2023-07-20T13:38:40;30.50;43.80
11925;DHT22;6022;48.768;18.608;2023-07-20T13:41:19;30.50;44.70
11925;DHT22;6022;48.768;18.608;2023-07-20T13:44:04;30.40;45.40
11925;DHT22;6022;48.768;18.608;2023-07-20T13:46:48;30.70;45.60
11925;DHT22;6022;48.768;18.608;2023-07-20T13:49:23;30.20;44.50
11925;DHT22;6022;48.768;18.608;2023-07-20T13:51:52;30.40;44.40
11925;DHT22;6022;48.768;18.608;2023-07-20T13:54:23;30.20;45.10
11925;DHT22;6022;48.768;18.608;2023-07-20T13:56:53;30.10;45.40
11925;DHT22;6022;48.768;18.608;2023-07-20T13:59:29;30.10;46.20
11925;DHT22;6022;48.768;18.608;2023-07-20T14:01:59;29.80;46.40
11925;DHT22;6022;48.768;18.608;2023-07-20T14:04:30;29.40;45.40
11925;DHT22;6022;48.768;18.608;2023-07-20T14:07:05;29.30;46.70
11925;DHT22;6022;48.768;18.608;2023-07-20T14:10:01;29.20;46.50
11925;DHT22;6022;48.768;18.608;2023-07-20T14:12:39;28.60;48.20
11925;DHT22;6022;48.768;18.608;2023-07-20T14:15:12;28.70;49.50
11925;DHT22;6022;48.768;18.608;2023-07-20T14:17:41;28.40;51.50
11925;DHT22;6022;48.768;18.608;2023-07-20T14:20:17;28.00;54.50
11925;DHT22;6022;48.768;18.608;2023-07-20T14:23:01;27.80;55.20
11925;DHT22;6022;48.768;18.608;2023-07-20T14:25:29;27.40;57.40
11925;DHT22;6022;48.768;18.608;2023-07-20T14:27:57;27.20;60.40
11925;DHT22;6022;48.768;18.608;2023-07-20T14:30:28;27.10;61.10
11925;DHT22;6022;48.768;18.608;2023-07-20T14:33:00;26.80;61.80
11925;DHT22;6022;48.768;18.608;2023-07-20T14:35:47;26.40;65.40
11925;DHT22;6022;48.768;18.608;2023-07-20T14:38:25;26.70;66.40
11925;DHT22;6022;48.768;18.608;2023-07-20T14:40:55;26.90;68.60
11925;DHT22;6022;48.768;18.608;2023-07-20T14:43:29;26.80;70.70
11925;DHT22;6022;48.768;18.608;2023-07-20T14:46:01;26.80;71.00
11925;DHT22;6022;48.768;18.608;2023-07-20T14:48:58;26.70;72.30
11925;DHT22;6022;48.768;18.608;2023-07-20T14:51:25;26.60;75.70
11925;DHT22;6022;48.768;18.608;2023-07-20T14:54:06;26.50;77.10
11925;DHT22;6022;48.768;18.608;2023-07-20T14:56:34;26.60;78.30
11925;DHT22;6022;48.768;18.608;2023-07-20T14:59:10;26.80;77.70
11925;DHT22;6022;48.768;18.608;2023-07-20T15:01:53;26.80;77.50
11925;DHT22;6022;48.768;18.608;2023-07-20T15:04:48;26.80;79.70
11925;DHT22;6022;48.768;18.608;2023-07-20T15:07:32;27.00;78.80
11925;DHT22;6022;48.768;18.608;2023-07-20T15:10:01;26.90;74.80
11925;DHT22;6022;48.768;18.608;2023-07-20T15:12:30;26.80;75.50
11925;DHT22;6022;48.768;18.608;2023-07-20T15:15:12;26.50;75.00
11925;DHT22;6022;48.768;18.608;2023-07-20T15:20:35;26.50;76.40
11925;DHT22;6022;48.768;18.608;2023-07-20T15:23:05;26.70;75.50
11925;DHT22;6022;48.768;18.608;2023-07-20T15:25:33;26.50;75.30
11925;DHT22;6022;48.768;18.608;2023-07-20T15:28:00;26.10;77.50
11925;DHT22;6022;48.768;18.608;2023-07-20T15:30:30;26.00;76.80
11925;DHT22;6022;48.768;18.608;2023-07-20T15:33:15;26.10;76.00
11925;DHT22;6022;48.768;18.608;2023-07-20T15:35:43;26.00;75.90
11925;DHT22;6022;48.768;18.608;2023-07-20T15:38:11;26.20;76.30
11925;DHT22;6022;48.768;18.608;2023-07-20T15:40:43;26.10;78.60
11925;DHT22;6022;48.768;18.608;2023-07-20T15:43:10;26.40;77.50
11925;DHT22;6022;48.768;18.608;2023-07-20T15:45:41;26.10;77.40
11925;DHT22;6022;48.768;18.608;2023-07-20T15:48:09;26.30;76.60
11925;DHT22;6022;48.768;18.608;2023-07-20T15:50:36;26.10;78.70
11925;DHT22;6022;48.768;18.608;2023-07-20T15:53:05;26.40;79.90
11925;DHT22;6022;48.768;18.608;2023-07-20T15:55:32;26.40;76.00
11925;DHT22;6022;48.768;18.608;2023-07-20T15:58:01;26.40;74.70
11925;DHT22;6022;48.768;18.608;2023-07-20T16:00:29;26.60;78.90
11925;DHT22;6022;48.768;18.608;2023-07-20T16:02:57;26.50;77.90
11925;DHT22;6022;48.768;18.608;2023-07-20T16:05:24;26.60;78.40
11925;DHT22;6022;48.768;18.608;2023-07-20T16:07:54;26.90;77.80
11925;DHT22;6022;48.768;18.608;2023-07-20T16:10:23;26.50;69.70
11925;DHT22;6022;48.768;18.608;2023-07-20T16:12:50;26.50;70.40
11925;DHT22;6022;48.768;18.608;2023-07-20T16:15:19;26.50;71.40
11925;DHT22;6022;48.768;18.608;2023-07-20T16:17:49;26.60;71.30
11925;DHT22;6022;48.768;18.608;2023-07-20T16:20:16;26.30;72.00
11925;DHT22;6022;48.768;18.608;2023-07-20T16:22:44;26.60;74.20
11925;DHT22;6022;48.768;18.608;2023-07-20T16:25:16;26.50;74.90
11925;DHT22;6022;48.768;18.608;2023-07-20T16:27:43;26.50;75.90
11925;DHT22;6022;48.768;18.608;2023-07-20T16:30:10;26.60;74.90
11925;DHT22;6022;48.768;18.608;2023-07-20T16:32:43;26.50;73.90
11925;DHT22;6022;48.768;18.608;2023-07-20T16:35:10;26.40;75.80
11925;DHT22;6022;48.768;18.608;2023-07-20T16:37:38;26.50;74.80
11925;DHT22;6022;48.768;18.608;2023-07-20T16:40:07;26.60;77.40
11925;DHT22;6022;48.768;18.608;2023-07-20T16:42:56;26.40;75.80
11925;DHT22;6022;48.768;18.608;2023-07-20T16:45:28;26.40;75.80
11925;DHT22;6022;48.768;18.608;2023-07-20T16:47:55;26.40;76.50
11925;DHT22;6022;48.768;18.608;2023-07-20T16:50:23;26.30;76.70
11925;DHT22;6022;48.768;18.608;2023-07-20T16:52:50;26.20;76.10
11925;DHT22;6022;48.768;18.608;2023-07-20T16:55:21;26.20;76.90
11925;DHT22;6022;48.768;18.608;2023-07-20T16:57:51;26.20;77.00
11925;DHT22;6022;48.768;18.608;2023-07-20T17:00:19;26.10;75.40
11925;DHT22;6022;48.768;18.608;2023-07-20T17:02:46;26.10;77.60
11925;DHT22;6022;48.768;18.608;2023-07-20T17:05:14;26.10;76.70
11925;DHT22;6022;48.768;18.608;2023-07-20T17:07:42;26.10;76.00
11925;DHT22;6022;48.768;18.608;2023-07-20T17:10:09;25.90;74.30
11925;DHT22;6022;48.768;18.608;2023-07-20T17:12:38;25.80;73.00
11925;DHT22;6022;48.768;18.608;2023-07-20T17:15:06;26.00;73.10
11925;DHT22;6022;48.768;18.608;2023-07-20T17:17:35;25.90;73.30
11925;DHT22;6022;48.768;18.608;2023-07-20T17:20:03;25.90;74.40
11925;DHT22;6022;48.768;18.608;2023-07-20T17:22:35;25.90;72.70
11925;DHT22;6022;48.768;18.608;2023-07-20T17:25:03;25.80;73.50
11925;DHT22;6022;48.768;18.608;2023-07-20T17:27:33;25.80;73.00
11925;DHT22;6022;48.768;18.608;2023-07-20T17:30:21;25.70;73.20
11925;DHT22;6022;48.768;18.608;2023-07-20T17:32:49;25.80;73.50
11925;DHT22;6022;48.768;18.608;2023-07-20T17:35:19;25.70;73.90
11925;DHT22;6022;48.768;18.608;2023-07-20T17:37:47;25.50;75.40
11925;DHT22;6022;48.768;18.608;2023-07-20T17:40:19;25.60;75.20
11925;DHT22;6022;48.768;18.608;2023-07-20T17:42:49;25.50;75.90
11925;DHT22;6022;48.768;18.608;2023-07-20T17:45:20;25.50;77.40
11925;DHT22;6022;48.768;18.608;2023-07-20T17:47:49;25.30;76.90
11925;DHT22;6022;48.768;18.608;2023-07-20T17:50:17;25.20;79.80
11925;DHT22;6022;48.768;18.608;2023-07-20T17:52:44;25.20;80.90
11925;DHT22;6022;48.768;18.608;2023-07-20T17:55:12;25.10;80.80
11925;DHT22;6022;48.768;18.608;2023-07-20T17:57:39;25.00;81.00
11925;DHT22;6022;48.768;18.608;2023-07-20T18:00:07;25.00;81.60
11925;DHT22;6022;48.768;18.608;2023-07-20T18:02:39;25.00;80.90
11925;DHT22;6022;48.768;18.608;2023-07-20T18:05:07;25.00;81.70
11925;DHT22;6022;48.768;18.608;2023-07-20T18:07:35;24.90;82.90
11925;DHT22;6022;48.768;18.608;2023-07-20T18:10:03;24.80;84.10
11925;DHT22;6022;48.768;18.608;2023-07-20T18:12:31;24.70;84.50
11925;DHT22;6022;48.768;18.608;2023-07-20T18:14:58;24.60;85.90
11925;DHT22;6022;48.768;18.608;2023-07-20T18:17:25;24.50;87.00
11925;DHT22;6022;48.768;18.608;2023-07-20T18:19:53;24.30;88.60
11925;DHT22;6022;48.768;18.608;2023-07-20T18:22:20;24.40;89.90
11925;DHT22;6022;48.768;18.608;2023-07-20T18:24:49;24.30;90.30
11925;DHT22;6022;48.768;18.608;2023-07-20T18:27:17;23.80;91.20
11925;DHT22;6022;48.768;18.608;2023-07-20T18:29:44;24.10;91.90
11925;DHT22;6022;48.768;18.608;2023-07-20T18:32:11;24.10;92.80
11925;DHT22;6022;48.768;18.608;2023-07-20T18:34:38;23.80;92.70
11925;DHT22;6022;48.768;18.608;2023-07-20T18:37:06;23.80;93.30
11925;DHT22;6022;48.768;18.608;2023-07-20T18:39:33;23.60;94.30